Kezdőlap
METAR-TAF:

METAR-TAF

Repülőterek :

Fillmore County Airport

Preston, Minnesota, Amerikai Egyesült Államok

földrajzi szélesség: 43-40-36N, földrajzi hosszúság: 092-10-47W, magasság: 389 m

Jelenlegi meteorológiai megfigyelések

A jelentés 15 perccel ezelõtt készült, 06:55 UTC
Keleti szél 4 kt
Hőmérséklet 20°C
Páratartalom 94%
Légköri nyomás 1017 hPa
Látótávolság: 11.3 km
Szórványos felhőzet 2100 lábon
Szórványos felhőzet 2700 lábon

METAR: KFKA 070655Z AUTO 08004KT 7SM SCT021 SCT027 20/19 A3003 RMK AO2 T02020192

Idő: 02:10 (07:10 UTC)


TAF: hiányzik

Meteorológiai megfigyelések és előrejelzések több, mint 4000 repülőtéren (METAR és TAF jelentéseket).

A térképen piros és sárga pontok jelzik az elérhető meteorológiai állomásokat.

Mozgassa az egeret a pont fölött, hogy megjelenjen az állomás neve.

Azután kattintson az időjárási megfigyelések és előrejelzések megtekintéséhez.

A térkép megváltoztatása: kattintson a fekete keresztel jelölt zöld gombra ráközelítéshez, a vonallal jelölt zöld gombra távolításhoz, vagy a zöld nyilakra a szomszédos térképek eléréséhez.


METAR-TAF: